Terminal Aerodrome Forecast
Issued by NWS Mt. Holly, NJ

Home | Current Version | Previous Version | Text Only | Print | Product List | Glossary On
Versions: 1 2 3 4 5 6 7 8 9 10 11 12 13 14 15 16 17 18 19 20 21 22 23 24 25 26 27 28 29 30
000
FTUS41 KPHI 262339
TAFPHL
TAF
KPHL 262339Z 2700/2806 19014KT P6SM BKN025
      TEMPO 2701/2702 33017G25KT 3SM SHRA BR OVC008
     FM270200 31010KT 6SM -SHRA BR OVC025
     FM270600 33010G18KT P6SM -RA BKN025 BKN040
     FM270900 35010KT 3SM RA BR OVC008
     FM271300 34010G18KT P6SM SCT025 BKN100
      TEMPO 2713/2717 BKN025
     FM280000 34009KT P6SM OVC080=

USA.gov is the U.S. government's official web portal to all federal, state and local government web resources and services.